Time;durP1;ratioP1;P1;durP2;ratioP2;P2;SDS_P1;SDS_P2;PMS_P1;PMS_P2;Temp;Humidity;BMP_temperature;BMP_pressure;BME280_temperature;BME280_humidity;BME280_pressure;Samples;Min_cycle;Max_cycle;Signal;HPM_P1;HPM_P2
2021/10/07 00:00:36;;;;;;;26.90;17.77;;;12.90;99.90;;;;;;5063682;28;20491;-86
2021/10/07 00:03:03;;;;;;;26.77;19.10;;;12.90;99.90;;;;;;5064185;28;20454;-87
2021/10/07 00:05:31;;;;;;;26.13;16.03;;;13.00;99.90;;;;;;5076641;28;20453;-87
2021/10/07 00:07:58;;;;;;;27.03;18.80;;;13.00;99.90;;;;;;5057017;28;20546;-85
2021/10/07 00:10:26;;;;;;;27.43;18.40;;;13.10;99.90;;;;;;5063244;28;20451;-85
2021/10/07 00:12:53;;;;;;;25.10;16.70;;;13.10;99.90;;;;;;5066178;28;20494;-85
2021/10/07 00:15:20;;;;;;;24.90;16.10;;;13.10;99.90;;;;;;5072468;28;20542;-86
2021/10/07 00:17:48;;;;;;;25.43;17.37;;;13.10;99.90;;;;;;5059719;28;20469;-86
2021/10/07 00:20:16;;;;;;;29.37;18.27;;;13.10;99.90;;;;;;5074759;28;20518;-85
2021/10/07 00:22:46;;;;;;;29.87;19.20;;;13.10;99.90;;;;;;5070886;28;20544;-85
2021/10/07 00:25:14;;;;;;;27.67;17.43;;;13.10;99.90;;;;;;5071207;28;20460;-85
2021/10/07 00:27:41;;;;;;;29.37;17.10;;;13.10;99.90;;;;;;5061313;28;20484;-85
2021/10/07 00:30:12;;;;;;;30.73;17.97;;;13.10;99.90;;;;;;5062922;28;20452;-85
2021/10/07 00:32:44;;;;;;;27.90;16.03;;;13.00;99.90;;;;;;5064447;28;20460;-85
2021/10/07 00:35:35;;;;;;;31.53;16.67;;;13.00;99.90;;;;;;5064679;28;20456;-86
2021/10/07 00:40:56;;;;;;;24.60;14.90;;;12.90;99.90;;;;;;5026761;28;21009;-85
2021/10/07 00:43:23;;;;;;;25.43;15.70;;;12.80;99.90;;;;;;5058095;28;20530;-85
2021/10/07 00:45:52;;;;;;;25.10;15.70;;;12.70;99.90;;;;;;5071177;28;20459;-85
2021/10/07 00:48:19;;;;;;;27.00;16.17;;;12.70;99.90;;;;;;5064498;28;20467;-86
2021/10/07 00:50:46;;;;;;;23.57;15.13;;;12.70;99.90;;;;;;5072661;28;20944;-86
2021/10/07 00:53:16;;;;;;;27.60;16.87;;;12.60;99.90;;;;;;5063906;28;20492;-85
2021/10/07 00:55:43;;;;;;;27.30;17.60;;;12.70;99.90;;;;;;5063965;28;20461;-86
2021/10/07 00:58:11;;;;;;;27.03;16.63;;;12.70;99.90;;;;;;5057523;28;20830;-86
2021/10/07 01:00:38;;;;;;;26.70;15.97;;;12.60;99.90;;;;;;5068418;28;20557;-85
2021/10/07 01:03:05;;;;;;;23.67;13.83;;;12.70;99.90;;;;;;5072652;28;20458;-85
2021/10/07 01:05:32;;;;;;;25.40;16.07;;;12.70;99.90;;;;;;5072318;28;20455;-86
2021/10/07 01:07:59;;;;;;;25.90;16.77;;;12.70;99.90;;;;;;5064892;28;20471;-86
2021/10/07 01:10:27;;;;;;;24.40;14.87;;;12.70;99.90;;;;;;5064684;28;20454;-85
2021/10/07 01:12:54;;;;;;;24.50;15.77;;;12.70;99.90;;;;;;5063076;28;20542;-85
2021/10/07 01:15:21;;;;;;;25.00;14.53;;;12.70;99.90;;;;;;5057790;28;20972;-85
2021/10/07 01:17:48;;;;;;;22.83;15.03;;;12.70;99.90;;;;;;5069490;28;20470;-85
2021/10/07 01:20:17;;;;;;;25.30;14.67;;;12.70;99.90;;;;;;5072208;28;20454;-85
2021/10/07 01:22:44;;;;;;;27.37;15.53;;;12.70;99.90;;;;;;5060852;28;20466;-85
2021/10/07 01:25:11;;;;;;;22.37;14.23;;;12.70;99.90;;;;;;5074984;28;20520;-86
2021/10/07 01:27:38;;;;;;;24.23;14.40;;;12.70;99.90;;;;;;5060432;28;20465;-84
2021/10/07 01:30:07;;;;;;;23.50;14.00;;;12.70;99.90;;;;;;5070966;28;20459;-85
2021/10/07 01:32:36;;;;;;;22.67;14.13;;;12.70;99.90;;;;;;5077010;28;20459;-85
2021/10/07 01:35:03;;;;;;;24.10;15.67;;;12.70;99.90;;;;;;5064539;28;20962;-85
2021/10/07 01:37:31;;;;;;;20.90;12.70;;;12.70;99.90;;;;;;5067382;28;20573;-85
2021/10/07 01:39:58;;;;;;;21.30;13.97;;;12.60;99.90;;;;;;5074708;28;20543;-85
2021/10/07 01:42:26;;;;;;;24.17;13.70;;;12.60;99.90;;;;;;5069124;28;20506;-84
2021/10/07 01:44:53;;;;;;;26.30;12.63;;;12.50;99.90;;;;;;5076031;28;20455;-85
2021/10/07 01:47:20;;;;;;;22.37;13.10;;;12.40;99.90;;;;;;5071571;28;20480;-85
2021/10/07 01:49:47;;;;;;;23.07;12.73;;;12.40;99.90;;;;;;5060579;28;20454;-84
2021/10/07 01:52:15;;;;;;;24.33;12.27;;;12.40;99.90;;;;;;5070566;28;20540;-83
2021/10/07 01:54:43;;;;;;;21.60;12.23;;;12.30;99.90;;;;;;5071527;28;20881;-84
2021/10/07 01:57:09;;;;;;;22.40;14.53;;;12.20;99.90;;;;;;5075639;28;21004;-85
2021/10/07 01:59:36;;;;;;;18.80;11.70;;;12.20;99.90;;;;;;5075056;28;20450;-85
2021/10/07 02:02:03;;;;;;;24.43;13.77;;;12.10;99.90;;;;;;5077450;28;20485;-85
2021/10/07 02:04:30;;;;;;;28.40;14.37;;;12.10;99.90;;;;;;5066799;28;20460;-85
2021/10/07 02:06:57;;;;;;;26.10;13.00;;;12.00;99.90;;;;;;5062148;28;20486;-85
2021/10/07 02:09:24;;;;;;;24.70;13.30;;;12.00;99.90;;;;;;5065783;28;20447;-85
2021/10/07 02:11:52;;;;;;;26.00;12.80;;;11.90;99.90;;;;;;5078636;28;20454;-85
2021/10/07 02:14:19;;;;;;;23.20;12.67;;;11.90;99.90;;;;;;5077315;28;20447;-85
2021/10/07 02:16:46;;;;;;;24.03;12.93;;;11.80;99.90;;;;;;5076787;28;20573;-85
2021/10/07 02:19:13;;;;;;;23.57;12.50;;;11.80;99.90;;;;;;5058744;28;20546;-85
2021/10/07 02:21:40;;;;;;;22.13;13.00;;;11.80;99.90;;;;;;5078138;28;20524;-85
2021/10/07 02:24:07;;;;;;;23.83;12.70;;;11.80;99.90;;;;;;5076721;28;21012;-84
2021/10/07 02:26:34;;;;;;;26.20;13.00;;;11.70;99.90;;;;;;5076744;28;21038;-84
2021/10/07 02:29:02;;;;;;;21.70;12.40;;;11.70;99.90;;;;;;5077399;28;20979;-84
2021/10/07 02:31:29;;;;;;;24.57;13.40;;;11.60;99.90;;;;;;5076962;28;20443;-84
2021/10/07 02:33:56;;;;;;;23.03;12.80;;;11.60;99.90;;;;;;5076880;28;20447;-84
2021/10/07 02:36:23;;;;;;;24.20;12.43;;;11.50;99.90;;;;;;5061103;28;20459;-85
2021/10/07 02:38:51;;;;;;;23.03;12.60;;;11.50;99.90;;;;;;5060980;28;20468;-84
2021/10/07 02:41:18;;;;;;;26.90;13.93;;;11.40;99.90;;;;;;5076519;28;20886;-84
2021/10/07 02:43:45;;;;;;;21.27;11.80;;;11.40;99.90;;;;;;5077242;28;20463;-85
2021/10/07 02:46:13;;;;;;;29.43;13.90;;;11.40;99.90;;;;;;5077065;28;20453;-85
2021/10/07 02:48:42;;;;;;;26.30;13.57;;;11.40;99.90;;;;;;5068116;28;20481;-85
2021/10/07 02:51:09;;;;;;;26.57;14.57;;;11.40;99.90;;;;;;5076392;28;20450;-84
2021/10/07 02:53:37;;;;;;;26.33;12.97;;;11.40;99.90;;;;;;5076472;28;20465;-84
2021/10/07 02:56:05;;;;;;;24.20;12.83;;;11.40;99.90;;;;;;5075331;28;20458;-84
2021/10/07 02:58:32;;;;;;;24.00;12.40;;;11.40;99.90;;;;;;5075870;28;20469;-85
2021/10/07 03:00:59;;;;;;;23.00;11.83;;;11.40;99.90;;;;;;5060331;28;20493;-84
2021/10/07 03:03:27;;;;;;;21.17;11.83;;;11.50;99.90;;;;;;5056813;28;20466;-84
2021/10/07 03:05:54;;;;;;;25.37;12.93;;;11.50;99.90;;;;;;5066502;28;20537;-85
2021/10/07 03:08:27;;;;;;;21.57;12.37;;;11.60;99.90;;;;;;5074045;28;20833;-84
2021/10/07 03:10:54;;;;;;;23.00;12.40;;;11.70;99.90;;;;;;5075347;28;20454;-84
2021/10/07 03:13:21;;;;;;;22.60;12.90;;;11.70;99.90;;;;;;5072194;28;20447;-84
2021/10/07 03:15:48;;;;;;;22.97;13.13;;;11.70;99.90;;;;;;5056469;28;20459;-84
2021/10/07 03:18:15;;;;;;;25.00;13.27;;;11.80;99.90;;;;;;5066737;28;20548;-84
2021/10/07 03:20:44;;;;;;;26.60;13.60;;;11.80;99.90;;;;;;5075594;28;20449;-84
2021/10/07 03:23:11;;;;;;;23.60;13.47;;;11.90;99.90;;;;;;5073719;28;20447;-85
2021/10/07 03:25:38;;;;;;;23.53;14.47;;;11.90;99.90;;;;;;5074767;28;20466;-84
2021/10/07 03:28:05;;;;;;;28.50;14.33;;;11.90;99.90;;;;;;5067902;28;20479;-86
2021/10/07 03:30:31;;;;;;;29.10;14.20;;;11.90;99.90;;;;;;5066998;28;20460;-84
2021/10/07 03:33:04;;;;;;;27.90;14.10;;;12.00;99.90;;;;;;5057113;28;20526;-84
2021/10/07 03:35:31;;;;;;;31.83;16.03;;;12.00;99.90;;;;;;5073380;28;20450;-84
2021/10/07 03:37:59;;;;;;;45.50;22.73;;;12.00;99.90;;;;;;5067897;22;20609;-85
2021/10/07 03:40:26;;;;;;;46.43;23.67;;;12.00;99.90;;;;;;5045249;28;20494;-84
2021/10/07 03:42:53;;;;;;;38.20;20.80;;;12.10;99.90;;;;;;5046073;28;20492;-85
2021/10/07 03:45:20;;;;;;;40.67;21.47;;;12.10;99.90;;;;;;5037812;28;20960;-85
2021/10/07 03:47:46;;;;;;;46.90;25.67;;;12.10;99.90;;;;;;5037154;28;20568;-85
2021/10/07 03:50:13;;;;;;;44.90;23.30;;;12.10;99.90;;;;;;5037190;28;20843;-85
2021/10/07 03:52:40;;;;;;;45.57;23.97;;;12.10;99.90;;;;;;5038481;28;20455;-85
2021/10/07 03:55:09;;;;;;;41.97;22.50;;;12.10;99.90;;;;;;5036054;28;20542;-85
2021/10/07 03:57:36;;;;;;;47.67;24.83;;;12.10;99.90;;;;;;5033068;28;20477;-85
2021/10/07 04:00:05;;;;;;;45.60;24.80;;;12.10;99.90;;;;;;5032466;28;20970;-84
2021/10/07 04:02:31;;;;;;;49.83;25.17;;;12.10;99.90;;;;;;5032681;28;20550;-84
2021/10/07 04:04:58;;;;;;;47.07;24.47;;;12.00;99.90;;;;;;5030562;28;20461;-85
2021/10/07 04:07:25;;;;;;;43.13;23.50;;;12.00;99.90;;;;;;5032388;28;20564;-84
2021/10/07 04:09:52;;;;;;;36.00;20.37;;;12.00;99.90;;;;;;5032213;28;20944;-83
2021/10/07 04:12:20;;;;;;;34.43;20.73;;;12.00;99.90;;;;;;5032629;28;20452;-84
2021/10/07 04:14:47;;;;;;;37.73;19.47;;;11.80;99.90;;;;;;5022389;28;20464;-84
2021/10/07 04:17:13;;;;;;;37.87;20.87;;;11.90;99.90;;;;;;5012660;28;20459;-83
2021/10/07 04:19:40;;;;;;;37.73;21.07;;;12.00;99.90;;;;;;5027623;28;20463;-83
2021/10/07 04:22:07;;;;;;;37.30;20.97;;;12.00;99.90;;;;;;5025248;28;20493;-84
2021/10/07 04:24:34;;;;;;;38.90;20.53;;;12.00;99.90;;;;;;5015456;28;20453;-84
2021/10/07 04:27:01;;;;;;;42.40;22.33;;;12.00;99.90;;;;;;5032297;28;20443;-82
2021/10/07 04:29:29;;;;;;;37.77;20.37;;;11.90;99.90;;;;;;5030189;28;20230;-82
2021/10/07 04:31:56;;;;;;;38.50;22.00;;;12.00;99.90;;;;;;5018620;28;20449;-81
2021/10/07 04:34:23;;;;;;;15.70;4.17;;;12.00;99.90;;;;;;5029904;28;20478;-84
2021/10/07 04:36:49;;;;;;;24.70;12.80;;;12.30;99.90;;;;;;5026425;28;20550;-84
2021/10/07 04:39:16;;;;;;;36.53;17.00;;;13.50;99.90;;;;;;5029952;28;20470;-84
2021/10/07 04:41:43;;;;;;;34.23;18.70;;;13.40;99.90;;;;;;5022319;28;20516;-85
2021/10/07 04:44:10;;;;;;;33.40;17.33;;;13.40;99.90;;;;;;5045136;28;20463;-82
2021/10/07 04:46:38;;;;;;;37.70;20.67;;;13.30;99.90;;;;;;5037788;28;20459;-81
2021/10/07 04:49:05;;;;;;;36.87;19.40;;;13.00;99.90;;;;;;5023315;28;20489;-82
2021/10/07 04:51:32;;;;;;;31.03;17.80;;;12.80;99.90;;;;;;5042754;28;20452;-82
2021/10/07 04:53:58;;;;;;;32.23;18.10;;;12.70;99.90;;;;;;5046138;28;20457;-82
2021/10/07 04:56:25;;;;;;;27.70;16.97;;;12.60;99.90;;;;;;5041903;28;20899;-81
2021/10/07 04:58:54;;;;;;;35.33;17.93;;;12.40;99.90;;;;;;5036401;28;20476;-82
2021/10/07 05:01:21;;;;;;;29.63;16.33;;;12.20;99.90;;;;;;5034300;28;20459;-81
2021/10/07 05:03:49;;;;;;;33.77;16.10;;;12.20;99.90;;;;;;5039076;28;20837;-82
2021/10/07 05:06:16;;;;;;;54.03;18.13;;;12.00;99.90;;;;;;5038618;28;20444;-81
2021/10/07 05:08:43;;;;;;;31.33;18.10;;;12.00;99.90;;;;;;5030372;28;20546;-82
2021/10/07 05:11:10;;;;;;;32.70;17.43;;;11.90;99.90;;;;;;5039123;28;20459;-82
2021/10/07 05:13:37;;;;;;;30.77;16.70;;;11.90;99.90;;;;;;5037806;28;20455;-81
2021/10/07 05:16:04;;;;;;;31.20;16.93;;;11.90;99.90;;;;;;5039199;28;20627;-82
2021/10/07 05:18:30;;;;;;;34.50;16.63;;;11.90;99.90;;;;;;5035146;28;20483;-82
2021/10/07 05:20:59;;;;;;;30.07;17.70;;;11.90;99.90;;;;;;5040105;28;20463;-81
2021/10/07 05:23:26;;;;;;;33.03;17.33;;;11.80;99.90;;;;;;5039389;28;20594;-81
2021/10/07 05:25:52;;;;;;;32.30;17.27;;;11.70;99.90;;;;;;5039503;28;20459;-81
2021/10/07 05:28:19;;;;;;;32.17;17.17;;;11.70;99.90;;;;;;5027804;28;20484;-82
2021/10/07 05:30:48;;;;;;;31.83;15.73;;;11.80;99.90;;;;;;5018965;28;20457;-81
2021/10/07 05:33:15;;;;;;;35.87;18.30;;;11.80;99.90;;;;;;5032111;28;20869;-80
2021/10/07 05:35:42;;;;;;;29.87;15.63;;;11.70;99.90;;;;;;5035507;28;20460;-80
2021/10/07 05:38:10;;;;;;;33.00;17.07;;;11.70;99.90;;;;;;5022789;28;20488;-82
2021/10/07 05:40:37;;;;;;;34.23;17.53;;;11.60;99.90;;;;;;5013338;28;20550;-80
2021/10/07 05:43:04;;;;;;;33.93;16.70;;;11.60;99.90;;;;;;5022564;28;20500;-80
2021/10/07 05:45:31;;;;;;;36.30;19.03;;;11.60;99.90;;;;;;5032623;28;20456;-81
2021/10/07 05:47:58;;;;;;;36.50;17.13;;;11.70;99.90;;;;;;5036259;28;20474;-81
2021/10/07 05:50:25;;;;;;;38.27;18.20;;;11.70;99.90;;;;;;5036477;28;20456;-81
2021/10/07 05:52:51;;;;;;;38.00;18.07;;;11.70;99.90;;;;;;5033974;28;20467;-81
2021/10/07 05:55:20;;;;;;;37.83;16.50;;;11.70;99.90;;;;;;5036639;28;20453;-81
2021/10/07 05:57:47;;;;;;;54.00;20.20;;;11.70;99.90;;;;;;5028294;28;20471;-81
2021/10/07 06:00:15;;;;;;;37.33;18.60;;;11.70;99.90;;;;;;5028717;28;20448;-81
2021/10/07 06:02:42;;;;;;;38.87;19.10;;;11.70;99.90;;;;;;5028377;28;20491;-81
2021/10/07 06:05:10;;;;;;;50.90;22.20;;;11.60;99.90;;;;;;5033513;28;20846;-81
2021/10/07 06:07:37;;;;;;;56.57;21.33;;;11.40;99.90;;;;;;5030617;28;20475;-81
2021/10/07 06:10:06;;;;;;;35.20;17.37;;;11.40;99.90;;;;;;5030393;28;20451;-80
2021/10/07 06:12:34;;;;;;;31.40;16.00;;;11.50;99.90;;;;;;5033519;28;20445;-81
2021/10/07 06:15:02;;;;;;;33.47;15.90;;;11.60;99.90;;;;;;5032389;28;20460;-81
2021/10/07 06:17:28;;;;;;;34.40;15.43;;;11.50;99.90;;;;;;5034753;28;20456;-81
2021/10/07 06:20:00;;;;;;;26.87;14.33;;;11.60;99.90;;;;;;5029647;28;20825;-81
2021/10/07 06:22:27;;;;;;;30.53;14.97;;;11.60;99.90;;;;;;5029376;28;20498;-80
2021/10/07 06:24:54;;;;;;;31.33;15.93;;;11.60;99.90;;;;;;5030112;28;20510;-81
2021/10/07 06:27:21;;;;;;;30.17;15.40;;;11.60;99.90;;;;;;5035270;28;20482;-81
2021/10/07 06:29:50;;;;;;;29.90;16.00;;;11.70;99.90;;;;;;5035384;28;20475;-81
2021/10/07 06:32:17;;;;;;;29.10;14.63;;;11.70;99.90;;;;;;5033415;28;20953;-81
2021/10/07 06:34:44;;;;;;;31.23;15.27;;;11.80;99.90;;;;;;5033768;28;20816;-81
2021/10/07 06:37:14;;;;;;;34.30;17.20;;;11.80;99.90;;;;;;5031206;28;20457;-81
2021/10/07 06:39:40;;;;;;;34.43;17.70;;;11.80;99.90;;;;;;5034659;28;20453;-81
2021/10/07 06:42:07;;;;;;;41.87;20.27;;;11.80;99.90;;;;;;5035775;28;20490;-80
2021/10/07 06:44:34;;;;;;;39.37;17.40;;;11.90;99.90;;;;;;5026910;28;20482;-82
2021/10/07 06:47:03;;;;;;;36.40;17.80;;;11.80;99.90;;;;;;5026548;28;20979;-82
2021/10/07 06:49:30;;;;;;;40.43;20.17;;;11.90;99.90;;;;;;5035320;28;20467;-81
2021/10/07 06:51:56;;;;;;;34.90;16.40;;;11.90;99.90;;;;;;5028032;28;20456;-81
2021/10/07 06:54:23;;;;;;;40.33;18.87;;;11.90;99.90;;;;;;5034099;28;20527;-82
2021/10/07 06:56:50;;;;;;;31.20;15.60;;;12.00;99.90;;;;;;5043693;28;20531;-80
2021/10/07 06:59:17;;;;;;;35.83;16.70;;;12.00;99.90;;;;;;5033807;28;20487;-81
2021/10/07 07:01:44;;;;;;;34.63;16.23;;;12.10;99.90;;;;;;5034747;28;20445;-82
2021/10/07 07:04:16;;;;;;;33.77;16.27;;;12.10;99.90;;;;;;5028198;28;20492;-81
2021/10/07 07:06:43;;;;;;;39.20;17.73;;;12.20;99.90;;;;;;5024532;28;20504;-80
2021/10/07 07:09:10;;;;;;;55.00;24.00;;;12.20;99.90;;;;;;5016978;28;20501;-81
2021/10/07 07:11:38;;;;;;;50.77;20.20;;;12.10;99.90;;;;;;5016362;28;20457;-80
2021/10/07 07:14:05;;;;;;;41.17;19.30;;;12.10;99.90;;;;;;5028353;28;20460;-81
2021/10/07 07:16:32;;;;;;;43.10;19.77;;;12.00;99.90;;;;;;5024926;28;20470;-82
2021/10/07 07:18:59;;;;;;;40.10;19.00;;;12.10;99.90;;;;;;5033567;28;20475;-81
2021/10/07 07:21:30;;;;;;;42.00;19.33;;;12.10;99.90;;;;;;5019994;28;20452;-81
2021/10/07 07:23:58;;;;;;;41.00;18.40;;;12.00;99.90;;;;;;5035695;28;20557;-80
2021/10/07 07:26:25;;;;;;;38.87;17.83;;;12.10;99.90;;;;;;5019744;28;20462;-81
2021/10/07 07:28:52;;;;;;;45.77;21.07;;;12.20;99.90;;;;;;5020508;28;20909;-81
2021/10/07 07:31:20;;;;;;;48.83;19.17;;;12.10;99.90;;;;;;5034718;28;20466;-81
2021/10/07 07:33:47;;;;;;;34.93;16.20;;;12.10;99.90;;;;;;5030726;28;20448;-80
2021/10/07 07:36:14;;;;;;;36.63;17.30;;;12.10;99.90;;;;;;5035531;28;20460;-81
2021/10/07 07:38:42;;;;;;;36.30;18.07;;;12.00;99.90;;;;;;5043177;28;20493;-81
2021/10/07 07:41:10;;;;;;;41.80;19.53;;;12.10;99.90;;;;;;5041878;28;20466;-80
2021/10/07 07:43:38;;;;;;;42.00;19.43;;;12.00;99.90;;;;;;5042471;28;20494;-81
2021/10/07 07:46:05;;;;;;;38.50;19.90;;;12.00;99.90;;;;;;5023784;28;20886;-81
2021/10/07 07:48:32;;;;;;;37.37;18.60;;;12.00;99.90;;;;;;5030971;28;20476;-81
2021/10/07 07:50:59;;;;;;;48.93;21.00;;;12.20;99.90;;;;;;5035913;28;20461;-81
2021/10/07 07:53:26;;;;;;;42.30;19.07;;;12.20;99.90;;;;;;5036339;28;20537;-80
2021/10/07 07:55:54;;;;;;;43.03;20.23;;;12.20;99.90;;;;;;5025993;28;20451;-81
2021/10/07 07:58:21;;;;;;;43.33;19.40;;;12.20;99.90;;;;;;5026734;28;20469;-80
2021/10/07 08:00:49;;;;;;;43.27;20.80;;;12.20;99.90;;;;;;5033469;28;20460;-81
2021/10/07 08:03:16;;;;;;;43.80;20.87;;;12.30;99.90;;;;;;5021787;28;20488;-80
2021/10/07 08:05:43;;;;;;;43.13;21.30;;;12.40;99.90;;;;;;5023217;28;20464;-81
2021/10/07 08:08:10;;;;;;;36.13;16.73;;;12.30;99.90;;;;;;5028000;28;20477;-81
2021/10/07 08:10:36;;;;;;;38.70;17.60;;;12.20;99.90;;;;;;5034643;28;21186;-80
2021/10/07 08:13:05;;;;;;;35.37;18.70;;;12.30;99.90;;;;;;5037417;28;20812;-80
2021/10/07 08:15:32;;;;;;;38.90;18.77;;;12.30;99.90;;;;;;5035717;28;20459;-80
2021/10/07 08:17:59;;;;;;;34.97;17.53;;;12.50;99.90;;;;;;5034306;28;21008;-81
2021/10/07 08:20:25;;;;;;;38.40;19.43;;;12.60;99.90;;;;;;5024504;28;20494;-81
2021/10/07 08:22:52;;;;;;;32.50;18.10;;;12.60;99.90;;;;;;5016850;28;20521;-80
2021/10/07 08:25:20;;;;;;;40.40;19.10;;;12.60;99.90;;;;;;5019468;28;20498;-80
2021/10/07 08:27:48;;;;;;;36.80;19.53;;;12.60;99.90;;;;;;5029438;28;20485;-80
2021/10/07 08:30:17;;;;;;;33.30;18.77;;;12.60;99.90;;;;;;5031281;28;20453;-81
2021/10/07 08:32:45;;;;;;;35.23;17.97;;;12.60;99.90;;;;;;5031930;28;20455;-81
2021/10/07 08:35:13;;;;;;;38.13;21.57;;;12.60;99.90;;;;;;5030016;28;20452;-80
2021/10/07 08:37:40;;;;;;;38.90;19.93;;;12.70;99.90;;;;;;5031146;28;20528;-79
2021/10/07 08:40:10;;;;;;;32.37;18.40;;;12.70;99.90;;;;;;5038807;28;20489;-81
2021/10/07 08:42:37;;;;;;;36.77;18.80;;;12.80;99.90;;;;;;5028336;28;20510;-80
2021/10/07 08:45:11;;;;;;;29.87;16.67;;;12.80;99.90;;;;;;5026721;28;20454;-80
2021/10/07 08:47:41;;;;;;;33.40;17.50;;;12.80;99.90;;;;;;5022493;28;20471;-79
2021/10/07 08:50:09;;;;;;;35.83;19.23;;;12.90;99.90;;;;;;5025167;28;21018;-79
2021/10/07 08:52:36;;;;;;;36.83;20.63;;;12.80;99.90;;;;;;5025137;28;20450;-79
2021/10/07 08:55:04;;;;;;;30.33;17.17;;;13.00;99.90;;;;;;5020444;28;20459;-78
2021/10/07 08:57:31;;;;;;;38.30;20.83;;;13.00;99.90;;;;;;5027905;28;20480;-79
2021/10/07 08:59:58;;;;;;;32.80;18.03;;;13.00;99.90;;;;;;5021051;28;21004;-79
2021/10/07 09:02:27;;;;;;;30.80;19.10;;;13.00;99.90;;;;;;5025120;28;20471;-79
2021/10/07 09:05:05;;;;;;;33.67;20.10;;;13.10;99.90;;;;;;5019995;28;20532;-79
2021/10/07 09:07:32;;;;;;;34.70;20.30;;;13.10;99.90;;;;;;5026607;28;20867;-79
2021/10/07 09:09:59;;;;;;;31.30;17.00;;;13.30;99.90;;;;;;5025656;28;20876;-79
2021/10/07 09:12:26;;;;;;;34.30;18.23;;;13.20;99.90;;;;;;5030777;28;20456;-80
2021/10/07 09:14:52;;;;;;;35.70;18.80;;;13.30;99.90;;;;;;5030626;28;20545;-80
2021/10/07 09:17:21;;;;;;;35.13;18.10;;;13.30;99.90;;;;;;5030292;28;20453;-79
2021/10/07 09:19:50;;;;;;;32.77;18.63;;;13.30;99.90;;;;;;5028366;28;20452;-81
2021/10/07 09:22:20;;;;;;;29.80;16.87;;;13.30;99.90;;;;;;5030430;28;20460;-80
2021/10/07 09:24:49;;;;;;;28.70;16.80;;;13.30;99.90;;;;;;5029978;28;21036;-80
2021/10/07 09:27:20;;;;;;;31.17;17.13;;;13.40;99.90;;;;;;5033511;28;21215;-79
2021/10/07 09:29:50;;;;;;;28.30;15.77;;;13.40;99.90;;;;;;5027167;28;20543;-79
2021/10/07 09:32:27;;;;;;;25.10;13.33;;;13.40;99.90;;;;;;5038036;28;20445;-81
2021/10/07 09:34:54;;;;;;;23.67;12.03;;;13.40;99.90;;;;;;5030221;28;20449;-79
2021/10/07 09:37:32;;;;;;;27.17;12.93;;;13.60;99.90;;;;;;5026360;28;20865;-79
2021/10/07 09:40:02;;;;;;;30.30;17.87;;;13.60;99.90;;;;;;5033333;28;20450;-80
2021/10/07 09:42:32;;;;;;;36.63;18.73;;;13.80;99.90;;;;;;5020990;28;20457;-81
2021/10/07 09:45:08;;;;;;;37.97;19.77;;;13.80;99.90;;;;;;5057869;22;20498;-84
2021/10/07 09:47:36;;;;;;;38.47;19.30;;;13.90;99.90;;;;;;5045514;28;20463;-83
2021/10/07 09:50:25;;;;;;;31.70;19.10;;;13.90;99.90;;;;;;5057828;28;20465;-84
2021/10/07 09:52:58;;;;;;;32.30;18.73;;;14.00;99.90;;;;;;5053346;28;20512;-85
2021/10/07 09:55:27;;;;;;;31.03;16.33;;;13.90;99.90;;;;;;5038497;28;20478;-84
2021/10/07 09:57:57;;;;;;;29.70;16.70;;;14.10;99.90;;;;;;5038059;28;20491;-85
2021/10/07 10:00:27;;;;;;;31.40;15.03;;;14.20;99.90;;;;;;5038862;28;20901;-82
2021/10/07 10:02:55;;;;;;;26.20;14.90;;;14.70;99.90;;;;;;5033715;28;20458;-83
2021/10/07 10:05:22;;;;;;;30.60;14.90;;;15.30;99.90;;;;;;5035411;28;20862;-84
2021/10/07 10:07:49;;;;;;;30.50;16.37;;;15.40;99.90;;;;;;5030626;28;20450;-83
2021/10/07 10:10:18;;;;;;;29.30;15.00;;;15.20;99.90;;;;;;5038434;28;20476;-85
2021/10/07 10:12:45;;;;;;;26.07;15.43;;;15.10;99.90;;;;;;5036432;28;20461;-83
2021/10/07 10:15:13;;;;;;;28.47;14.77;;;15.00;99.90;;;;;;5030827;28;20490;-84
2021/10/07 10:17:40;;;;;;;27.93;15.37;;;15.00;99.90;;;;;;5025192;28;20465;-84
2021/10/07 10:20:12;;;;;;;28.77;14.80;;;14.90;99.90;;;;;;5029998;28;20459;-84
2021/10/07 10:22:43;;;;;;;31.27;17.27;;;14.80;99.90;;;;;;5018802;28;20454;-84
2021/10/07 10:25:10;;;;;;;27.10;16.37;;;14.80;99.90;;;;;;5017213;28;20493;-85
2021/10/07 10:27:49;;;;;;;27.50;16.30;;;14.70;99.90;;;;;;5035095;28;20458;-85
2021/10/07 10:30:41;;;;;;;30.10;15.77;;;14.60;99.90;;;;;;5033856;28;20954;-84
2021/10/07 10:33:26;;;;;;;24.83;13.90;;;14.70;99.90;;;;;;5007981;28;20458;-85
2021/10/07 10:35:53;;;;;;;26.27;14.57;;;14.70;99.90;;;;;;5037652;28;20960;-84
2021/10/07 10:38:19;;;;;;;26.60;15.97;;;14.80;99.90;;;;;;5036147;28;20552;-85
2021/10/07 10:40:46;;;;;;;27.37;14.07;;;15.20;99.90;;;;;;5038853;28;20451;-84
2021/10/07 10:43:34;;;;;;;25.10;13.00;;;16.20;99.90;;;;;;5036136;28;20477;-85
2021/10/07 10:46:16;;;;;;;24.93;12.53;;;17.60;99.90;;;;;;5018381;28;20462;-85
2021/10/07 10:49:03;;;;;;;24.47;12.70;;;18.60;99.90;;;;;;5028192;28;20835;-85
2021/10/07 10:51:34;;;;;;;22.33;12.90;;;;;;;;;;5027474;28;20502;-86
2021/10/07 10:54:03;;;;;;;20.60;11.60;;;;;;;;;;5030850;28;20474;-86
2021/10/07 10:56:31;;;;;;;22.80;13.00;;;;;;;;;;5033516;28;20456;-85
2021/10/07 10:59:17;;;;;;;21.57;11.23;;;;;;;;;;5031615;28;20444;-85
2021/10/07 11:01:44;;;;;;;21.53;12.43;;;;;;;;;;5034119;28;20500;-86
2021/10/07 11:04:12;;;;;;;23.10;11.97;;;;;;;;;;5027721;28;20520;-85
2021/10/07 11:06:54;;;;;;;20.50;11.13;;;;;;;;;;5025388;28;20484;-85
2021/10/07 11:09:36;;;;;;;23.07;12.27;;;;;;;;;;5019685;28;21120;-85
2021/10/07 11:12:03;;;;;;;23.47;12.87;;;;;;;;;;5027689;28;20450;-85
2021/10/07 11:14:32;;;;;;;25.37;12.67;;;;;;;;;;5024836;28;20980;-85
2021/10/07 11:17:00;;;;;;;21.17;11.40;;;;;;;;;;5033768;28;20998;-85
2021/10/07 11:19:27;;;;;;;21.27;11.40;;;;;;;;;;5036567;28;20551;-86
2021/10/07 11:22:07;;;;;;;20.67;10.07;;;;;;;;;;5033808;28;20558;-85
2021/10/07 11:24:34;;;;;;;18.10;10.73;;;;;;;;;;5033412;28;20514;-85
2021/10/07 11:27:01;;;;;;;18.50;10.90;;;;;;;;;;5032419;28;20457;-85
2021/10/07 11:29:29;;;;;;;19.30;9.90;;;;;;;;;;5026317;28;20972;-86
2021/10/07 11:31:57;;;;;;;17.67;9.70;;;;;;;;;;5020543;28;20541;-86
2021/10/07 11:34:24;;;;;;;19.53;10.83;;;;;;;;;;5030790;28;20476;-86
2021/10/07 11:36:54;;;;;;;19.40;10.10;;;;;;;;;;5016700;28;20460;-86
2021/10/07 11:39:22;;;;;;;19.73;8.80;;;;;;;;;;5023113;28;20455;-85
2021/10/07 11:41:49;;;;;;;17.23;8.53;;;;;;;;;;5025407;28;20538;-85
2021/10/07 11:44:19;;;;;;;20.80;10.30;;;;;;;;;;5027614;28;20502;-84
2021/10/07 11:46:46;;;;;;;16.80;7.70;;;;;;;;;;5025342;28;20479;-84
2021/10/07 11:49:14;;;;;;;17.73;9.20;;;;;;;;;;5024369;28;20460;-84
2021/10/07 11:51:41;;;;;;;19.10;9.40;;;;;;;;;;5028331;28;20541;-83
2021/10/07 11:54:09;;;;;;;16.43;8.37;;;;;;;;;;5023864;28;20473;-84
2021/10/07 11:56:39;;;;;;;13.43;4.90;;;;;;;;;;5024924;28;20465;-85
2021/10/07 11:59:07;;;;;;;16.00;5.93;;;;;;;;;;5027713;28;20474;-85
2021/10/07 12:01:37;;;;;;;19.10;8.00;;;;;;;;;;5030190;28;20458;-84
2021/10/07 12:04:06;;;;;;;15.63;6.53;;;;;;;;;;5028724;28;20491;-84
2021/10/07 12:06:37;;;;;;;16.57;7.30;;;;;;;;;;5023338;28;20472;-83
2021/10/07 12:09:05;;;;;;;15.83;6.80;;;;;;;;;;5026491;28;20453;-85
2021/10/07 12:11:32;;;;;;;20.53;8.80;;;;;;;;;;5026763;28;20467;-84
2021/10/07 12:14:01;;;;;;;16.40;7.20;;;;;;;;;;5027132;28;20493;-84
2021/10/07 12:16:28;;;;;;;15.97;6.40;;;;;;;;;;5023790;28;20445;-84
2021/10/07 12:18:56;;;;;;;14.37;5.23;;;;;;;;;;5021172;28;20461;-84
2021/10/07 12:21:24;;;;;;;14.33;5.33;;;;;;;;;;5022198;28;20454;-85
2021/10/07 12:24:03;;;;;;;13.53;4.70;;;;;;;;;;5036213;28;20496;-85
2021/10/07 12:26:32;;;;;;;12.90;4.80;;;;;;;;;;5014382;28;20530;-84
2021/10/07 12:29:00;;;;;;;12.17;3.80;;;;;;;;;;5018509;28;20449;-83
2021/10/07 12:31:29;;;;;;;13.47;3.97;;;;;;;;;;5019426;28;20966;-84
2021/10/07 12:33:57;;;;;;;10.90;3.10;;;;;;;;;;5023379;28;20548;-85
2021/10/07 12:36:32;;;;;;;13.97;3.90;;;;;;;;;;5019449;28;20461;-84
2021/10/07 12:38:59;;;;;;;10.60;3.03;;;;;;;;;;5024433;28;20452;-83
2021/10/07 12:41:34;;;;;;;11.50;3.60;;;;;;;;;;5024734;28;20876;-83
2021/10/07 12:44:01;;;;;;;10.17;2.80;;;;;;;;;;5017937;28;20572;-84
2021/10/07 12:46:29;;;;;;;10.47;2.70;;;;;;;;;;5033854;28;20449;-84
2021/10/07 12:48:57;;;;;;;10.80;2.70;;;;;;;;;;5031645;28;20450;-84
2021/10/07 12:51:26;;;;;;;10.70;2.70;;;;;;;;;;5023360;28;20657;-83